Time,TemperatureF,DewpointF,PressureIn,WindDirection,WindDirectionDegrees,WindSpeedMPH,WindSpeedGustMPH,Humidity,HourlyPrecipIn,Conditions,Clouds,dailyrainin,SoftwareType,DateUTC
2013-05-05 00:07:00,61.2,11.6,29.85,East,90,14.5,-999.0,14,-99.99,,,0.00,Acu-Link.com,2013-05-05 06:07:00,
2013-05-05 00:22:00,60.8,11.3,29.85,ENE,67,16.6,-999.0,14,-99.99,,,0.00,Acu-Link.com,2013-05-05 06:22:00,
2013-05-05 00:37:00,60.3,12.4,29.84,East,90,15.4,-999.0,15,-99.99,,,0.00,Acu-Link.com,2013-05-05 06:37:00,
2013-05-05 00:52:00,59.9,13.6,29.85,SSE,157,15.0,-999.0,16,-99.99,,,0.00,Acu-Link.com,2013-05-05 06:52:00,
2013-05-05 01:08:00,59.7,13.5,29.85,East,90,15.0,-999.0,16,-99.99,,,0.00,Acu-Link.com,2013-05-05 07:08:00,
2013-05-05 01:23:00,59.4,14.6,29.86,South,180,8.3,-999.0,17,-99.99,,,0.00,Acu-Link.com,2013-05-05 07:23:00,
2013-05-05 01:38:00,59.0,15.6,29.86,SW,225,9.4,-999.0,18,-99.99,,,0.00,Acu-Link.com,2013-05-05 07:38:00,
2013-05-05 01:53:00,58.6,15.3,29.87,ESE,112,16.6,-999.0,18,-99.99,,,0.00,Acu-Link.com,2013-05-05 07:53:00,
2013-05-05 02:08:00,58.5,15.1,29.86,SSE,157,10.3,-999.0,18,-99.99,,,0.00,Acu-Link.com,2013-05-05 08:08:00,
2013-05-05 02:23:00,58.1,14.8,29.86,South,180,8.3,-999.0,18,-99.99,,,0.00,Acu-Link.com,2013-05-05 08:23:00,
2013-05-05 02:39:00,58.1,14.8,29.87,SE,135,9.4,-999.0,18,-99.99,,,0.00,Acu-Link.com,2013-05-05 08:39:00,
2013-05-05 02:54:00,57.2,15.3,29.87,East,90,11.0,-999.0,19,-99.99,,,0.00,Acu-Link.com,2013-05-05 08:54:00,
2013-05-05 03:09:00,56.3,14.6,29.87,East,90,11.4,-999.0,19,-99.99,,,0.00,Acu-Link.com,2013-05-05 09:09:00,
2013-05-05 03:24:00,55.6,15.2,29.87,ESE,112,20.6,-999.0,20,-99.99,,,0.00,Acu-Link.com,2013-05-05 09:24:00,
2013-05-05 03:39:00,54.5,16.5,29.88,ESE,112,16.6,-999.0,22,-99.99,,,0.00,Acu-Link.com,2013-05-05 09:39:00,
2013-05-05 03:54:00,53.8,16.9,29.89,ESE,112,13.0,-999.0,23,-99.99,,,0.00,Acu-Link.com,2013-05-05 09:54:00,
2013-05-05 04:09:00,53.4,16.6,29.90,South,180,9.4,-999.0,23,-99.99,,,0.00,Acu-Link.com,2013-05-05 10:09:00,
2013-05-05 04:25:00,53.2,17.4,29.90,ESE,112,9.4,-999.0,24,-99.99,,,0.00,Acu-Link.com,2013-05-05 10:25:00,
2013-05-05 04:40:00,52.7,16.9,29.90,ESE,112,6.3,-999.0,24,-99.99,,,0.00,Acu-Link.com,2013-05-05 10:40:00,
2013-05-05 04:55:00,52.3,17.6,29.91,SSE,157,13.4,-999.0,25,-99.99,,,0.00,Acu-Link.com,2013-05-05 10:55:00,
2013-05-05 05:10:00,52.0,17.3,29.92,SSW,202,4.7,-999.0,25,-99.99,,,0.00,Acu-Link.com,2013-05-05 11:10:00,
2013-05-05 05:25:00,51.4,16.8,29.92,ESE,112,8.9,-999.0,25,-99.99,,,0.00,Acu-Link.com,2013-05-05 11:25:00,
2013-05-05 05:41:00,51.3,16.7,29.94,East,90,11.9,-999.0,25,-99.99,,,0.00,Acu-Link.com,2013-05-05 11:41:00,
2013-05-05 05:56:00,50.7,17.1,29.93,ENE,67,6.3,-999.0,26,-99.99,,,0.00,Acu-Link.com,2013-05-05 11:56:00,
2013-05-05 06:11:00,50.4,16.8,29.94,SE,135,9.4,-999.0,26,-99.99,,,0.00,Acu-Link.com,2013-05-05 12:11:00,
2013-05-05 06:26:00,50.9,16.4,29.94,SSE,157,6.7,-999.0,25,-99.99,,,0.00,Acu-Link.com,2013-05-05 12:26:00,
2013-05-05 06:42:00,51.1,16.5,29.96,ENE,67,6.7,-999.0,25,-99.99,,,0.00,Acu-Link.com,2013-05-05 12:42:00,
2013-05-05 06:57:00,52.3,16.6,29.97,East,90,5.8,-999.0,24,-99.99,,,0.00,Acu-Link.com,2013-05-05 12:57:00,
2013-05-05 07:12:00,53.8,16.9,29.99,NNE,22,9.4,-999.0,23,-99.99,,,0.00,Acu-Link.com,2013-05-05 13:12:00,
2013-05-05 07:27:00,53.1,16.3,29.99,ENE,67,13.0,-999.0,23,-99.99,,,0.00,Acu-Link.com,2013-05-05 13:27:00,
2013-05-05 07:42:00,53.8,16.9,29.99,East,90,7.4,-999.0,23,-99.99,,,0.00,Acu-Link.com,2013-05-05 13:42:00,
2013-05-05 07:58:00,54.0,16.0,29.99,SE,135,11.9,-999.0,22,-99.99,,,0.00,Acu-Link.com,2013-05-05 13:58:00,
2013-05-05 08:13:00,54.0,16.0,29.99,SE,135,3.8,-999.0,22,-99.99,,,0.00,Acu-Link.com,2013-05-05 14:13:00,
2013-05-05 08:28:00,54.3,16.3,29.98,ESE,112,9.4,-999.0,22,-99.99,,,0.00,Acu-Link.com,2013-05-05 14:28:00,
2013-05-05 08:43:00,58.3,17.4,29.99,SSE,157,3.1,-999.0,20,-99.99,,,0.00,Acu-Link.com,2013-05-05 14:43:00,
2013-05-05 08:58:00,58.5,16.4,30.00,East,90,6.3,-999.0,19,-99.99,,,0.00,Acu-Link.com,2013-05-05 14:58:00,
2013-05-05 09:14:00,59.2,17.0,30.00,WNW,292,3.1,-999.0,19,-99.99,,,0.00,Acu-Link.com,2013-05-05 15:14:00,
2013-05-05 09:29:00,61.3,17.5,30.00,SSW,202,4.7,-999.0,18,-99.99,,,0.00,Acu-Link.com,2013-05-05 15:29:00,
2013-05-05 09:44:00,62.1,18.1,30.00,ENE,67,3.8,-999.0,18,-99.99,,,0.00,Acu-Link.com,2013-05-05 15:44:00,
2013-05-05 09:59:00,62.6,17.2,30.00,SE,135,7.4,-999.0,17,-99.99,,,0.00,Acu-Link.com,2013-05-05 15:59:00,
2013-05-05 10:14:00,61.5,17.6,30.00,ESE,112,7.8,-999.0,18,-99.99,,,0.00,Acu-Link.com,2013-05-05 16:14:00,
2013-05-05 10:30:00,62.6,17.2,30.00,ESE,112,4.7,-999.0,17,-99.99,,,0.00,Acu-Link.com,2013-05-05 16:30:00,
2013-05-05 10:45:00,66.2,18.7,30.00,East,90,6.3,-999.0,16,-99.99,,,0.00,Acu-Link.com,2013-05-05 16:45:00,
2013-05-05 11:00:00,64.0,18.4,30.00,South,180,7.4,-999.0,17,-99.99,,,0.00,Acu-Link.com,2013-05-05 17:00:00,
2013-05-05 11:15:00,66.0,20.0,29.99,ENE,67,2.7,-999.0,17,-99.99,,,0.00,Acu-Link.com,2013-05-05 17:15:00,
2013-05-05 11:31:00,67.6,19.9,29.99,ESE,112,5.1,-999.0,16,-99.99,,,0.00,Acu-Link.com,2013-05-05 17:31:00,
2013-05-05 11:46:00,69.4,19.8,29.98,East,90,9.8,-999.0,15,-99.99,,,0.00,Acu-Link.com,2013-05-05 17:46:00,
2013-05-05 12:01:00,66.9,19.3,29.98,East,90,5.8,-999.0,16,-99.99,,,0.00,Acu-Link.com,2013-05-05 18:01:00,
2013-05-05 12:16:00,68.7,22.2,29.97,ESE,112,4.7,-999.0,17,-99.99,,,0.00,Acu-Link.com,2013-05-05 18:16:00,
2013-05-05 12:31:00,70.3,22.0,29.96,East,90,6.3,-999.0,16,-99.99,,,0.00,Acu-Link.com,2013-05-05 18:31:00,
2013-05-05 12:47:00,72.3,22.1,29.95,NE,45,6.3,-999.0,15,-99.99,,,0.00,Acu-Link.com,2013-05-05 18:47:00,
2013-05-05 13:02:00,73.4,25.9,29.94,ESE,112,8.3,-999.0,17,-99.99,,,0.00,Acu-Link.com,2013-05-05 19:02:00,
2013-05-05 13:17:00,72.9,22.5,29.93,ENE,67,8.9,-999.0,15,-99.99,,,0.00,Acu-Link.com,2013-05-05 19:17:00,
2013-05-05 13:32:00,73.9,23.4,29.93,West,270,3.1,-999.0,15,-99.99,,,0.00,Acu-Link.com,2013-05-05 19:32:00,
2013-05-05 13:47:00,74.5,25.3,29.92,ESE,112,6.3,-999.0,16,-99.99,,,0.00,Acu-Link.com,2013-05-05 19:47:00,
2013-05-05 14:03:00,75.4,28.9,29.92,SSE,157,4.3,-999.0,18,-99.99,,,0.00,Acu-Link.com,2013-05-05 20:03:00,
2013-05-05 14:18:00,76.3,28.3,29.89,East,90,6.7,-999.0,17,-99.99,,,0.00,Acu-Link.com,2013-05-05 20:18:00,
2013-05-05 14:33:00,75.6,29.1,29.89,West,270,3.8,-999.0,18,-99.99,,,0.00,Acu-Link.com,2013-05-05 20:33:00,
2013-05-05 14:48:00,77.4,29.1,29.89,SW,225,4.7,-999.0,17,-99.99,,,0.00,Acu-Link.com,2013-05-05 20:48:00,
2013-05-05 15:04:00,73.0,28.3,29.88,WSW,247,2.2,-999.0,19,-99.99,,,0.00,Acu-Link.com,2013-05-05 21:04:00,
2013-05-05 15:19:00,73.9,27.8,29.88,SE,135,5.8,-999.0,18,-99.99,,,0.00,Acu-Link.com,2013-05-05 21:19:00,
2013-05-05 15:34:00,71.6,29.6,29.88,East,90,10.3,-999.0,21,-99.99,,,0.00,Acu-Link.com,2013-05-05 21:34:00,
2013-05-05 15:49:00,73.8,28.9,29.87,NNE,22,5.8,-999.0,19,-99.99,,,0.00,Acu-Link.com,2013-05-05 21:49:00,
2013-05-05 16:04:00,74.8,29.8,29.86,ESE,112,4.3,-999.0,19,-99.99,,,0.00,Acu-Link.com,2013-05-05 22:04:00,
2013-05-05 16:20:00,74.7,27.0,29.85,ESE,112,1.6,-999.0,17,-99.99,,,0.00,Acu-Link.com,2013-05-05 22:20:00,
2013-05-05 16:35:00,77.0,27.4,29.85,NNE,22,2.7,-999.0,16,-99.99,,,0.00,Acu-Link.com,2013-05-05 22:35:00,
2013-05-05 16:50:00,74.3,26.7,29.84,SSE,157,3.1,-999.0,17,-99.99,,,0.00,Acu-Link.com,2013-05-05 22:50:00,
2013-05-05 17:05:00,73.9,29.1,29.86,South,180,2.7,-999.0,19,-99.99,,,0.00,Acu-Link.com,2013-05-05 23:05:00,
2013-05-05 17:20:00,73.2,29.7,29.85,West,270,3.1,-999.0,20,-99.99,,,0.00,Acu-Link.com,2013-05-05 23:20:00,
2013-05-05 17:36:00,74.1,29.2,29.84,West,270,2.2,-999.0,19,-99.99,,,0.00,Acu-Link.com,2013-05-05 23:36:00,
2013-05-05 17:51:00,72.3,27.7,29.84,SSE,157,5.1,-999.0,19,-99.99,,,0.00,Acu-Link.com,2013-05-05 23:51:00,
2013-05-05 18:06:00,72.1,27.6,29.84,West,270,3.8,-999.0,19,-99.99,,,0.00,Acu-Link.com,2013-05-06 00:06:00,
2013-05-05 18:21:00,70.0,30.5,29.85,South,180,13.4,-999.0,23,-99.99,,,0.00,Acu-Link.com,2013-05-06 00:21:00,
2013-05-05 18:36:00,70.7,32.1,29.85,South,180,3.1,-999.0,24,-99.99,,,0.00,Acu-Link.com,2013-05-06 00:36:00,
2013-05-05 18:52:00,70.2,31.7,29.84,SSE,157,3.8,-999.0,24,-99.99,,,0.00,Acu-Link.com,2013-05-06 00:52:00,
2013-05-05 19:07:00,69.6,31.2,29.85,SSW,202,4.3,-999.0,24,-99.99,,,0.00,Acu-Link.com,2013-05-06 01:07:00,
2013-05-05 19:22:00,70.9,33.3,29.84,SW,225,1.1,-999.0,25,-99.99,,,0.00,Acu-Link.com,2013-05-06 01:22:00,
2013-05-05 19:37:00,69.8,31.4,29.84,ESE,112,4.3,-999.0,24,-99.99,,,0.00,Acu-Link.com,2013-05-06 01:37:00,
2013-05-05 19:53:00,68.4,32.1,29.84,NE,45,3.8,-999.0,26,-99.99,,,0.00,Acu-Link.com,2013-05-06 01:53:00,
2013-05-05 20:08:00,67.6,31.5,29.84,ENE,67,7.4,-999.0,26,-99.99,,,0.00,Acu-Link.com,2013-05-06 02:08:00,
2013-05-05 20:23:00,66.9,32.8,29.84,NNE,22,5.1,-999.0,28,-99.99,,,0.00,Acu-Link.com,2013-05-06 02:23:00,
2013-05-05 20:38:00,66.7,31.7,29.84,ENE,67,2.2,-999.0,27,-99.99,,,0.00,Acu-Link.com,2013-05-06 02:38:00,
2013-05-05 20:53:00,66.4,30.5,29.85,East,90,6.7,-999.0,26,-99.99,,,0.00,Acu-Link.com,2013-05-06 02:53:00,
2013-05-05 21:09:00,66.0,28.2,29.85,East,90,6.7,-999.0,24,-99.99,,,0.00,Acu-Link.com,2013-05-06 03:09:00,
2013-05-05 21:24:00,65.3,24.4,29.85,ESE,112,6.3,-999.0,21,-99.99,,,0.00,Acu-Link.com,2013-05-06 03:24:00,
2013-05-05 21:39:00,64.6,20.1,29.84,East,90,8.3,-999.0,18,-99.99,,,0.00,Acu-Link.com,2013-05-06 03:39:00,
2013-05-05 21:54:00,63.7,19.4,29.86,ENE,67,8.9,-999.0,18,-99.99,,,0.00,Acu-Link.com,2013-05-06 03:54:00,
2013-05-05 22:09:00,63.0,18.8,29.86,ESE,112,5.1,-999.0,18,-99.99,,,0.00,Acu-Link.com,2013-05-06 04:09:00,
2013-05-05 22:25:00,62.8,18.7,29.87,South,180,5.1,-999.0,18,-99.99,,,0.00,Acu-Link.com,2013-05-06 04:25:00,
2013-05-05 22:40:00,62.4,18.4,29.86,East,90,8.3,-999.0,18,-99.99,,,0.00,Acu-Link.com,2013-05-06 04:40:00,
2013-05-05 22:55:00,62.4,18.4,29.86,East,90,7.4,-999.0,18,-99.99,,,0.00,Acu-Link.com,2013-05-06 04:55:00,
2013-05-05 23:10:00,61.7,17.8,29.86,ESE,112,7.8,-999.0,18,-99.99,,,0.00,Acu-Link.com,2013-05-06 05:10:00,
2013-05-05 23:25:00,61.7,17.8,29.85,ESE,112,4.3,-999.0,18,-99.99,,,0.00,Acu-Link.com,2013-05-06 05:25:00,
2013-05-05 23:41:00,61.3,17.5,29.85,ESE,112,10.3,-999.0,18,-99.99,,,0.00,Acu-Link.com,2013-05-06 05:41:00,
2013-05-05 23:56:00,61.3,17.5,29.85,East,90,4.7,-999.0,18,-99.99,,,0.00,Acu-Link.com,2013-05-06 05:56:00,